HST,Max TemperatureF,Mean TemperatureF,Min TemperatureF,Max Dew PointF,MeanDew PointF,Min DewpointF,Max Humidity, Mean Humidity, Min Humidity, Max Sea Level PressureIn, Mean Sea Level PressureIn, Min Sea Level PressureIn, Max VisibilityMiles, Mean VisibilityMiles, Min VisibilityMiles, Max Wind SpeedMPH, Mean Wind SpeedMPH, Max Gust SpeedMPH,PrecipitationIn, CloudCover, Events, WindDirDegrees
2012-11-1,82,77,72,65,61,58,66,55,47,30.00,29.96,29.91,10,10,10,13,6,,0.00,3,,153
2012-11-2,82,78,75,64,63,61,66,58,47,29.98,29.94,29.88,10,10,10,12,6,,0.00,3,,303
2012-11-3,84,80,75,66,64,60,69,60,47,29.99,29.95,29.90,10,10,10,15,10,,0.00,4,,6
2012-11-4,84,78,73,68,66,62,71,63,51,29.99,29.95,29.92,10,10,10,17,9,,0.00,3,,5
2012-11-5,84,78,72,68,65,60,71,61,51,29.96,29.91,29.84,10,10,10,12,5,,0.00,2,,158
2012-11-6,84,80,75,70,66,61,69,63,54,29.93,29.88,29.83,10,10,10,13,7,,0.00,3,,154
2012-11-7,84,78,73,66,64,62,71,60,53,30.01,29.95,29.90,10,10,10,10,6,,0.00,1,,148
2012-11-8,82,78,73,68,65,61,73,65,51,30.06,30.02,29.99,10,10,10,16,5,,0.04,2,,129
2012-11-9,84,77,70,67,63,55,78,60,38,30.05,30.00,29.94,10,10,10,24,8,32,0.00,2,,81
2012-11-10,82,76,70,65,62,57,73,60,50,30.03,29.98,29.91,10,10,10,12,6,,0.00,2,,121
2012-11-11,84,78,71,67,62,56,71,59,49,30.03,29.98,29.94,10,10,10,13,7,,0.00,2,Rain,124
2012-11-12,82,76,71,65,60,56,68,56,42,30.08,30.03,29.97,10,10,10,12,6,22,0.00,1,,108
2012-11-13,82,77,72,66,61,57,69,58,45,30.07,30.03,29.98,10,10,10,21,7,26,0.00,2,,118
2012-11-14,84,76,69,66,62,56,73,59,45,30.08,30.04,30.00,10,10,10,13,6,,0.00,2,,98
2012-11-15,82,76,71,65,62,59,71,60,50,30.08,30.04,29.99,10,10,10,16,4,,0.00,4,Rain,42
2012-11-16,82,77,72,64,62,57,68,59,52,30.06,30.02,29.97,10,10,10,10,6,,0.00,2,,115
2012-11-17,80,76,73,65,62,59,64,59,54,30.07,30.01,29.95,10,10,10,9,4,,0.00,0,,97
2012-11-18,82,78,73,66,63,58,66,61,55,30.08,30.03,30.00,10,10,10,15,5,,0.00,1,,172
2012-11-19,84,78,73,67,64,58,71,60,40,30.07,30.03,29.98,10,10,10,14,6,,0.00,1,,133
2012-11-20,82,77,72,68,66,62,74,66,56,30.04,29.99,29.93,10,10,10,10,4,,0.00,1,,168
2012-11-21,80,78,75,70,68,64,79,73,66,30.00,29.95,29.89,10,10,10,9,4,,0.00,3,,273
2012-11-22,81,77,73,71,69,66,85,76,65,29.98,29.93,29.87,10,10,10,14,5,,0.02,2,Rain,7
2012-11-23,84,78,73,70,68,64,79,72,60,29.97,29.93,29.88,10,10,10,18,8,20,0.00,2,Rain,155
2012-11-24,82,76,71,70,68,60,84,73,53,29.97,29.93,29.87,10,10,10,9,4,,0.04,3,Rain,194
2012-11-25,86,78,71,67,64,60,76,64,48,29.98,29.93,29.86,10,10,10,20,7,25,0.00,0,,67
2012-11-26,82,76,71,65,61,54,73,58,44,30.02,29.96,29.91,10,10,10,17,8,,0.00,2,,6
2012-11-27,84,78,72,65,60,57,68,56,38,30.04,30.00,29.94,10,10,10,21,7,25,0.00,3,,39
2012-11-28,82,75,68,64,61,55,68,61,52,30.05,30.01,29.96,10,10,10,13,6,,0.00,0,,159
2012-11-29,80,74,69,64,61,57,71,64,56,30.06,30.03,29.97,10,10,10,10,5,,0.00,0,,40
2012-11-30,81,76,70,64,62,58,70,63,52,30.06,30.03,29.97,10,10,10,8,5,,0.00,1,,21